sensor_id;sensor_type;location;lat;lon;timestamp;temperature;humidity
51908;DHT22;39320;53.214;6.556;2022-12-07T00:02:05;5.90;99.90
51908;DHT22;39320;53.214;6.556;2022-12-07T00:04:31;5.90;99.90
51908;DHT22;39320;53.214;6.556;2022-12-07T00:06:56;5.90;99.90
51908;DHT22;39320;53.214;6.556;2022-12-07T00:09:22;5.90;99.90
51908;DHT22;39320;53.214;6.556;2022-12-07T00:11:53;6.00;99.90
51908;DHT22;39320;53.214;6.556;2022-12-07T00:14:20;6.00;99.90
51908;DHT22;39320;53.214;6.556;2022-12-07T00:16:49;6.40;99.90
51908;DHT22;39320;53.214;6.556;2022-12-07T00:19:21;6.00;99.90
51908;DHT22;39320;53.214;6.556;2022-12-07T00:21:46;6.00;99.90
51908;DHT22;39320;53.214;6.556;2022-12-07T00:24:12;6.00;99.90
51908;DHT22;39320;53.214;6.556;2022-12-07T00:26:39;6.00;99.90
51908;DHT22;39320;53.214;6.556;2022-12-07T00:29:32;6.00;99.90
51908;DHT22;39320;53.214;6.556;2022-12-07T00:32:00;6.00;99.90
51908;DHT22;39320;53.214;6.556;2022-12-07T00:34:25;6.00;99.90
51908;DHT22;39320;53.214;6.556;2022-12-07T00:36:54;6.00;99.90
51908;DHT22;39320;53.214;6.556;2022-12-07T00:39:20;6.00;99.90
51908;DHT22;39320;53.214;6.556;2022-12-07T00:41:46;6.00;99.90
51908;DHT22;39320;53.214;6.556;2022-12-07T00:44:12;6.00;99.90
51908;DHT22;39320;53.214;6.556;2022-12-07T00:46:38;5.90;99.90
51908;DHT22;39320;53.214;6.556;2022-12-07T00:49:03;5.90;99.90
51908;DHT22;39320;53.214;6.556;2022-12-07T00:51:32;5.90;99.90
51908;DHT22;39320;53.214;6.556;2022-12-07T00:53:58;6.00;99.90
51908;DHT22;39320;53.214;6.556;2022-12-07T00:56:26;5.90;99.90
51908;DHT22;39320;53.214;6.556;2022-12-07T01:01:19;5.90;99.90
51908;DHT22;39320;53.214;6.556;2022-12-07T01:03:45;6.00;99.90
51908;DHT22;39320;53.214;6.556;2022-12-07T01:06:15;6.00;99.90
51908;DHT22;39320;53.214;6.556;2022-12-07T01:08:42;6.00;99.90
51908;DHT22;39320;53.214;6.556;2022-12-07T01:11:11;6.00;99.90
51908;DHT22;39320;53.214;6.556;2022-12-07T01:13:38;6.00;99.90
51908;DHT22;39320;53.214;6.556;2022-12-07T01:16:05;6.10;99.90
51908;DHT22;39320;53.214;6.556;2022-12-07T01:18:33;6.10;99.90
51908;DHT22;39320;53.214;6.556;2022-12-07T01:23:25;6.10;99.90
51908;DHT22;39320;53.214;6.556;2022-12-07T01:25:59;6.10;99.90
51908;DHT22;39320;53.214;6.556;2022-12-07T01:28:25;6.10;99.90
51908;DHT22;39320;53.214;6.556;2022-12-07T01:31:07;6.30;99.90
51908;DHT22;39320;53.214;6.556;2022-12-07T01:33:36;6.60;99.90
51908;DHT22;39320;53.214;6.556;2022-12-07T01:36:12;6.10;99.90
51908;DHT22;39320;53.214;6.556;2022-12-07T01:38:38;6.10;99.90
51908;DHT22;39320;53.214;6.556;2022-12-07T01:41:04;6.10;99.90
51908;DHT22;39320;53.214;6.556;2022-12-07T01:43:32;6.10;99.90
51908;DHT22;39320;53.214;6.556;2022-12-07T01:45:58;6.10;99.90
51908;DHT22;39320;53.214;6.556;2022-12-07T01:48:39;6.10;99.90
51908;DHT22;39320;53.214;6.556;2022-12-07T01:51:11;6.10;99.90
51908;DHT22;39320;53.214;6.556;2022-12-07T01:53:42;6.00;99.90
51908;DHT22;39320;53.214;6.556;2022-12-07T01:56:11;6.70;99.90
51908;DHT22;39320;53.214;6.556;2022-12-07T01:58:38;6.10;99.90
51908;DHT22;39320;53.214;6.556;2022-12-07T02:01:04;6.10;99.90
51908;DHT22;39320;53.214;6.556;2022-12-07T02:03:38;6.10;99.90
51908;DHT22;39320;53.214;6.556;2022-12-07T02:06:05;6.10;99.90
51908;DHT22;39320;53.214;6.556;2022-12-07T02:08:31;6.00;99.90
51908;DHT22;39320;53.214;6.556;2022-12-07T02:11:05;6.10;99.90
51908;DHT22;39320;53.214;6.556;2022-12-07T02:13:36;6.10;99.90
51908;DHT22;39320;53.214;6.556;2022-12-07T02:16:33;6.10;99.90
51908;DHT22;39320;53.214;6.556;2022-12-07T02:22:01;6.00;99.90
51908;DHT22;39320;53.214;6.556;2022-12-07T02:30:10;6.00;99.90
51908;DHT22;39320;53.214;6.556;2022-12-07T02:35:25;6.00;99.90
51908;DHT22;39320;53.214;6.556;2022-12-07T02:40:39;6.00;99.90
51908;DHT22;39320;53.214;6.556;2022-12-07T02:43:30;6.00;99.90
51908;DHT22;39320;53.214;6.556;2022-12-07T02:46:05;5.90;99.90
51908;DHT22;39320;53.214;6.556;2022-12-07T02:48:33;5.90;99.90
51908;DHT22;39320;53.214;6.556;2022-12-07T02:50:59;5.90;99.90
51908;DHT22;39320;53.214;6.556;2022-12-07T02:53:41;5.90;99.90
51908;DHT22;39320;53.214;6.556;2022-12-07T02:58:54;5.90;99.90
51908;DHT22;39320;53.214;6.556;2022-12-07T03:09:57;6.00;99.90
51908;DHT22;39320;53.214;6.556;2022-12-07T03:15:18;6.00;99.90
51908;DHT22;39320;53.214;6.556;2022-12-07T03:17:46;6.00;99.90
51908;DHT22;39320;53.214;6.556;2022-12-07T03:20:17;6.00;99.90
51908;DHT22;39320;53.214;6.556;2022-12-07T03:22:45;6.00;99.90
51908;DHT22;39320;53.214;6.556;2022-12-07T03:25:14;5.90;99.90
51908;DHT22;39320;53.214;6.556;2022-12-07T03:27:58;6.00;99.90
51908;DHT22;39320;53.214;6.556;2022-12-07T03:30:39;5.90;99.90
51908;DHT22;39320;53.214;6.556;2022-12-07T03:33:15;5.90;99.90
51908;DHT22;39320;53.214;6.556;2022-12-07T03:35:48;6.00;99.90
51908;DHT22;39320;53.214;6.556;2022-12-07T03:38:25;6.00;99.90
51908;DHT22;39320;53.214;6.556;2022-12-07T03:41:20;6.00;99.90
51908;DHT22;39320;53.214;6.556;2022-12-07T03:43:48;6.00;99.90
51908;DHT22;39320;53.214;6.556;2022-12-07T03:46:34;5.90;99.90
51908;DHT22;39320;53.214;6.556;2022-12-07T03:56:49;6.00;99.90
51908;DHT22;39320;53.214;6.556;2022-12-07T03:59:16;6.00;99.90
51908;DHT22;39320;53.214;6.556;2022-12-07T04:01:52;6.00;99.90
51908;DHT22;39320;53.214;6.556;2022-12-07T04:04:19;6.00;99.90
51908;DHT22;39320;53.214;6.556;2022-12-07T04:06:44;6.00;99.90
51908;DHT22;39320;53.214;6.556;2022-12-07T04:09:10;6.00;99.90
51908;DHT22;39320;53.214;6.556;2022-12-07T04:11:36;6.00;99.90
51908;DHT22;39320;53.214;6.556;2022-12-07T04:14:01;6.00;99.90
51908;DHT22;39320;53.214;6.556;2022-12-07T04:19:12;6.00;99.90
51908;DHT22;39320;53.214;6.556;2022-12-07T04:21:38;6.30;99.90
51908;DHT22;39320;53.214;6.556;2022-12-07T04:24:04;5.90;99.90
51908;DHT22;39320;53.214;6.556;2022-12-07T04:26:30;5.90;99.90
51908;DHT22;39320;53.214;6.556;2022-12-07T04:28:56;6.30;99.90
51908;DHT22;39320;53.214;6.556;2022-12-07T04:31:21;5.90;99.90
51908;DHT22;39320;53.214;6.556;2022-12-07T04:33:47;5.90;99.90
51908;DHT22;39320;53.214;6.556;2022-12-07T04:36:13;5.90;99.90
51908;DHT22;39320;53.214;6.556;2022-12-07T04:38:39;5.90;99.90
51908;DHT22;39320;53.214;6.556;2022-12-07T04:41:09;5.90;99.90
51908;DHT22;39320;53.214;6.556;2022-12-07T04:43:35;5.90;99.90
51908;DHT22;39320;53.214;6.556;2022-12-07T04:46:01;5.90;99.90
51908;DHT22;39320;53.214;6.556;2022-12-07T04:48:28;6.00;99.90
51908;DHT22;39320;53.214;6.556;2022-12-07T04:50:54;5.90;99.90
51908;DHT22;39320;53.214;6.556;2022-12-07T04:53:19;5.90;99.90
51908;DHT22;39320;53.214;6.556;2022-12-07T04:55:46;5.90;99.90
51908;DHT22;39320;53.214;6.556;2022-12-07T04:58:12;5.90;99.90
51908;DHT22;39320;53.214;6.556;2022-12-07T05:00:39;5.90;99.90
51908;DHT22;39320;53.214;6.556;2022-12-07T05:03:05;5.90;99.90
51908;DHT22;39320;53.214;6.556;2022-12-07T05:05:31;5.80;99.90
51908;DHT22;39320;53.214;6.556;2022-12-07T05:07:56;5.90;99.90
51908;DHT22;39320;53.214;6.556;2022-12-07T05:10:22;5.80;99.90
51908;DHT22;39320;53.214;6.556;2022-12-07T05:12:48;5.80;99.90
51908;DHT22;39320;53.214;6.556;2022-12-07T05:15:15;5.80;99.90
51908;DHT22;39320;53.214;6.556;2022-12-07T05:17:41;5.80;99.90
51908;DHT22;39320;53.214;6.556;2022-12-07T05:20:07;5.80;99.90
51908;DHT22;39320;53.214;6.556;2022-12-07T05:22:33;5.80;99.90
51908;DHT22;39320;53.214;6.556;2022-12-07T05:24:59;5.80;99.90
51908;DHT22;39320;53.214;6.556;2022-12-07T05:27:25;5.80;99.90
51908;DHT22;39320;53.214;6.556;2022-12-07T05:29:51;5.70;99.90
51908;DHT22;39320;53.214;6.556;2022-12-07T05:32:17;5.80;99.90
51908;DHT22;39320;53.214;6.556;2022-12-07T05:34:43;5.80;99.90
51908;DHT22;39320;53.214;6.556;2022-12-07T05:37:09;5.70;99.90
51908;DHT22;39320;53.214;6.556;2022-12-07T05:39:35;5.70;99.90
51908;DHT22;39320;53.214;6.556;2022-12-07T05:42:01;5.60;99.90
51908;DHT22;39320;53.214;6.556;2022-12-07T05:44:40;6.10;99.90
51908;DHT22;39320;53.214;6.556;2022-12-07T05:47:06;5.60;99.90
51908;DHT22;39320;53.214;6.556;2022-12-07T05:49:32;5.60;99.90
51908;DHT22;39320;53.214;6.556;2022-12-07T05:51:58;5.60;99.90
51908;DHT22;39320;53.214;6.556;2022-12-07T05:54:24;5.60;99.90
51908;DHT22;39320;53.214;6.556;2022-12-07T05:56:50;5.60;99.90
51908;DHT22;39320;53.214;6.556;2022-12-07T05:59:16;5.60;99.90
51908;DHT22;39320;53.214;6.556;2022-12-07T06:01:49;5.60;99.90
51908;DHT22;39320;53.214;6.556;2022-12-07T06:04:15;5.60;99.90
51908;DHT22;39320;53.214;6.556;2022-12-07T06:06:41;5.60;99.90
51908;DHT22;39320;53.214;6.556;2022-12-07T06:09:07;6.00;99.90
51908;DHT22;39320;53.214;6.556;2022-12-07T06:11:33;5.50;99.90
51908;DHT22;39320;53.214;6.556;2022-12-07T06:14:17;5.50;99.90
51908;DHT22;39320;53.214;6.556;2022-12-07T06:16:43;5.50;99.90
51908;DHT22;39320;53.214;6.556;2022-12-07T06:19:09;5.50;99.90
51908;DHT22;39320;53.214;6.556;2022-12-07T06:21:35;5.50;99.90
51908;DHT22;39320;53.214;6.556;2022-12-07T06:24:00;5.50;99.90
51908;DHT22;39320;53.214;6.556;2022-12-07T06:26:27;5.50;99.90
51908;DHT22;39320;53.214;6.556;2022-12-07T06:28:53;5.50;99.90
51908;DHT22;39320;53.214;6.556;2022-12-07T06:31:18;5.50;99.90
51908;DHT22;39320;53.214;6.556;2022-12-07T06:33:44;6.50;99.90
51908;DHT22;39320;53.214;6.556;2022-12-07T06:36:10;5.50;99.90
51908;DHT22;39320;53.214;6.556;2022-12-07T06:38:36;5.50;99.90
51908;DHT22;39320;53.214;6.556;2022-12-07T06:41:02;5.50;99.90
51908;DHT22;39320;53.214;6.556;2022-12-07T06:43:30;5.60;99.90
51908;DHT22;39320;53.214;6.556;2022-12-07T06:45:56;5.50;99.90
51908;DHT22;39320;53.214;6.556;2022-12-07T06:48:21;5.40;99.90
51908;DHT22;39320;53.214;6.556;2022-12-07T06:50:47;6.20;99.90
51908;DHT22;39320;53.214;6.556;2022-12-07T06:53:16;5.50;99.90
51908;DHT22;39320;53.214;6.556;2022-12-07T06:55:42;5.50;99.90
51908;DHT22;39320;53.214;6.556;2022-12-07T06:58:08;5.50;99.90
51908;DHT22;39320;53.214;6.556;2022-12-07T07:00:33;5.40;99.90
51908;DHT22;39320;53.214;6.556;2022-12-07T07:03:01;5.40;99.90
51908;DHT22;39320;53.214;6.556;2022-12-07T07:05:27;6.00;99.90
51908;DHT22;39320;53.214;6.556;2022-12-07T07:07:52;6.20;99.90
51908;DHT22;39320;53.214;6.556;2022-12-07T07:10:18;5.40;99.90
51908;DHT22;39320;53.214;6.556;2022-12-07T07:12:44;5.40;99.90
51908;DHT22;39320;53.214;6.556;2022-12-07T07:15:10;5.40;99.90
51908;DHT22;39320;53.214;6.556;2022-12-07T07:17:37;5.30;99.90
51908;DHT22;39320;53.214;6.556;2022-12-07T07:20:03;5.30;99.90
51908;DHT22;39320;53.214;6.556;2022-12-07T07:22:29;5.30;99.90
51908;DHT22;39320;53.214;6.556;2022-12-07T07:24:58;5.30;99.90
51908;DHT22;39320;53.214;6.556;2022-12-07T07:27:23;5.30;99.90
51908;DHT22;39320;53.214;6.556;2022-12-07T07:29:49;5.30;99.90
51908;DHT22;39320;53.214;6.556;2022-12-07T07:32:15;5.30;99.90
51908;DHT22;39320;53.214;6.556;2022-12-07T07:34:41;5.30;99.90
51908;DHT22;39320;53.214;6.556;2022-12-07T07:37:06;5.30;99.90
51908;DHT22;39320;53.214;6.556;2022-12-07T07:39:32;5.50;99.90
51908;DHT22;39320;53.214;6.556;2022-12-07T07:41:58;5.40;99.90
51908;DHT22;39320;53.214;6.556;2022-12-07T07:44:23;5.40;99.90
51908;DHT22;39320;53.214;6.556;2022-12-07T07:46:49;5.50;99.90
51908;DHT22;39320;53.214;6.556;2022-12-07T07:49:15;5.40;99.90
51908;DHT22;39320;53.214;6.556;2022-12-07T07:51:41;5.40;99.90
51908;DHT22;39320;53.214;6.556;2022-12-07T07:54:06;5.20;99.90
51908;DHT22;39320;53.214;6.556;2022-12-07T07:56:32;5.40;99.90
51908;DHT22;39320;53.214;6.556;2022-12-07T07:58:58;5.40;99.90
51908;DHT22;39320;53.214;6.556;2022-12-07T08:01:24;5.30;99.90
51908;DHT22;39320;53.214;6.556;2022-12-07T08:03:50;5.30;99.90
51908;DHT22;39320;53.214;6.556;2022-12-07T08:06:15;5.40;99.90
51908;DHT22;39320;53.214;6.556;2022-12-07T08:08:41;5.30;99.90
51908;DHT22;39320;53.214;6.556;2022-12-07T08:11:08;5.00;99.90
51908;DHT22;39320;53.214;6.556;2022-12-07T08:13:36;5.20;99.90
51908;DHT22;39320;53.214;6.556;2022-12-07T08:16:09;5.20;99.90
51908;DHT22;39320;53.214;6.556;2022-12-07T08:18:37;5.10;99.90
51908;DHT22;39320;53.214;6.556;2022-12-07T08:21:04;5.60;99.90
51908;DHT22;39320;53.214;6.556;2022-12-07T08:23:30;5.10;99.90
51908;DHT22;39320;53.214;6.556;2022-12-07T08:26:08;5.90;99.90
51908;DHT22;39320;53.214;6.556;2022-12-07T08:28:34;5.30;99.90
51908;DHT22;39320;53.214;6.556;2022-12-07T08:31:06;5.20;99.90
51908;DHT22;39320;53.214;6.556;2022-12-07T08:33:33;5.20;99.90
51908;DHT22;39320;53.214;6.556;2022-12-07T08:36:04;5.20;99.90
51908;DHT22;39320;53.214;6.556;2022-12-07T08:38:30;5.30;99.90
51908;DHT22;39320;53.214;6.556;2022-12-07T08:40:57;5.30;99.90
51908;DHT22;39320;53.214;6.556;2022-12-07T08:43:25;6.40;99.90
51908;DHT22;39320;53.214;6.556;2022-12-07T08:45:59;5.30;99.90
51908;DHT22;39320;53.214;6.556;2022-12-07T08:48:27;5.30;99.90
51908;DHT22;39320;53.214;6.556;2022-12-07T08:50:53;5.30;99.90
51908;DHT22;39320;53.214;6.556;2022-12-07T08:53:19;5.80;99.90
51908;DHT22;39320;53.214;6.556;2022-12-07T08:55:46;6.10;99.90
51908;DHT22;39320;53.214;6.556;2022-12-07T08:58:12;5.40;99.90
51908;DHT22;39320;53.214;6.556;2022-12-07T09:00:38;5.40;99.90
51908;DHT22;39320;53.214;6.556;2022-12-07T09:03:03;5.40;99.90
51908;DHT22;39320;53.214;6.556;2022-12-07T09:05:29;5.50;99.90
51908;DHT22;39320;53.214;6.556;2022-12-07T09:07:59;5.50;99.90
51908;DHT22;39320;53.214;6.556;2022-12-07T09:10:25;5.50;99.90
51908;DHT22;39320;53.214;6.556;2022-12-07T09:12:51;5.50;99.90
51908;DHT22;39320;53.214;6.556;2022-12-07T09:15:17;5.50;99.90
51908;DHT22;39320;53.214;6.556;2022-12-07T09:17:43;5.60;99.90
51908;DHT22;39320;53.214;6.556;2022-12-07T09:20:09;5.60;99.90
51908;DHT22;39320;53.214;6.556;2022-12-07T09:22:35;5.60;99.90
51908;DHT22;39320;53.214;6.556;2022-12-07T09:25:02;5.70;99.90
51908;DHT22;39320;53.214;6.556;2022-12-07T09:27:28;5.60;99.90
51908;DHT22;39320;53.214;6.556;2022-12-07T09:29:57;6.30;99.90
51908;DHT22;39320;53.214;6.556;2022-12-07T09:32:23;5.70;99.90
51908;DHT22;39320;53.214;6.556;2022-12-07T09:34:48;5.70;99.90
51908;DHT22;39320;53.214;6.556;2022-12-07T09:37:14;5.70;99.90
51908;DHT22;39320;53.214;6.556;2022-12-07T09:39:40;5.80;99.90
51908;DHT22;39320;53.214;6.556;2022-12-07T09:42:07;5.80;99.90
51908;DHT22;39320;53.214;6.556;2022-12-07T09:44:34;5.80;99.90
51908;DHT22;39320;53.214;6.556;2022-12-07T09:47:01;6.90;99.90
51908;DHT22;39320;53.214;6.556;2022-12-07T09:49:30;5.80;99.90
51908;DHT22;39320;53.214;6.556;2022-12-07T09:54:36;5.80;99.90
51908;DHT22;39320;53.214;6.556;2022-12-07T09:57:05;5.80;99.90
51908;DHT22;39320;53.214;6.556;2022-12-07T09:59:30;5.90;99.90
51908;DHT22;39320;53.214;6.556;2022-12-07T10:02:21;5.80;99.90
51908;DHT22;39320;53.214;6.556;2022-12-07T10:04:48;5.90;99.90
51908;DHT22;39320;53.214;6.556;2022-12-07T10:07:14;5.90;99.90
51908;DHT22;39320;53.214;6.556;2022-12-07T10:09:40;5.90;99.90
51908;DHT22;39320;53.214;6.556;2022-12-07T10:12:09;5.90;99.90
51908;DHT22;39320;53.214;6.556;2022-12-07T10:14:37;5.90;99.90
51908;DHT22;39320;53.214;6.556;2022-12-07T10:17:39;6.20;99.90
51908;DHT22;39320;53.214;6.556;2022-12-07T10:20:23;5.90;99.90
51908;DHT22;39320;53.214;6.556;2022-12-07T10:23:00;6.80;99.90
51908;DHT22;39320;53.214;6.556;2022-12-07T10:25:32;5.90;99.90
51908;DHT22;39320;53.214;6.556;2022-12-07T10:28:10;5.90;99.90
51908;DHT22;39320;53.214;6.556;2022-12-07T10:30:59;5.90;99.90
51908;DHT22;39320;53.214;6.556;2022-12-07T10:33:56;5.90;99.90
51908;DHT22;39320;53.214;6.556;2022-12-07T10:39:10;6.00;99.90
51908;DHT22;39320;53.214;6.556;2022-12-07T10:41:56;6.10;99.90
51908;DHT22;39320;53.214;6.556;2022-12-07T10:44:23;6.10;99.90
51908;DHT22;39320;53.214;6.556;2022-12-07T10:52:21;6.20;99.90
51908;DHT22;39320;53.214;6.556;2022-12-07T10:58:16;6.20;99.90
51908;DHT22;39320;53.214;6.556;2022-12-07T11:11:10;6.20;99.90
51908;DHT22;39320;53.214;6.556;2022-12-07T11:16:32;6.20;99.90
51908;DHT22;39320;53.214;6.556;2022-12-07T11:22:00;6.20;99.90
51908;DHT22;39320;53.214;6.556;2022-12-07T11:27:00;6.10;99.90
51908;DHT22;39320;53.214;6.556;2022-12-07T11:29:53;6.10;99.90
51908;DHT22;39320;53.214;6.556;2022-12-07T11:32:53;6.10;99.90
51908;DHT22;39320;53.214;6.556;2022-12-07T11:41:11;6.20;99.90
51908;DHT22;39320;53.214;6.556;2022-12-07T11:43:52;6.30;99.90
51908;DHT22;39320;53.214;6.556;2022-12-07T11:46:20;6.30;99.90
51908;DHT22;39320;53.214;6.556;2022-12-07T11:49:54;6.30;99.90
51908;DHT22;39320;53.214;6.556;2022-12-07T11:51:52;6.20;99.90
51908;DHT22;39320;53.214;6.556;2022-12-07T11:54:25;6.30;99.90
51908;DHT22;39320;53.214;6.556;2022-12-07T11:56:53;6.40;99.90
51908;DHT22;39320;53.214;6.556;2022-12-07T11:59:38;6.40;99.90
51908;DHT22;39320;53.214;6.556;2022-12-07T12:02:16;6.30;99.90
51908;DHT22;39320;53.214;6.556;2022-12-07T12:07:28;6.30;99.90
51908;DHT22;39320;53.214;6.556;2022-12-07T12:10:02;6.30;99.90
51908;DHT22;39320;53.214;6.556;2022-12-07T12:13:00;6.30;99.90
51908;DHT22;39320;53.214;6.556;2022-12-07T12:18:37;6.30;99.90
51908;DHT22;39320;53.214;6.556;2022-12-07T12:21:18;6.30;99.90
51908;DHT22;39320;53.214;6.556;2022-12-07T12:24:10;6.30;99.90
51908;DHT22;39320;53.214;6.556;2022-12-07T12:26:38;6.30;99.90
51908;DHT22;39320;53.214;6.556;2022-12-07T12:29:31;6.30;99.90
51908;DHT22;39320;53.214;6.556;2022-12-07T12:32:19;6.30;99.90
51908;DHT22;39320;53.214;6.556;2022-12-07T12:37:54;6.30;99.90
51908;DHT22;39320;53.214;6.556;2022-12-07T12:42:56;6.30;99.90
51908;DHT22;39320;53.214;6.556;2022-12-07T12:45:32;6.30;99.90
51908;DHT22;39320;53.214;6.556;2022-12-07T12:48:07;6.40;99.90
51908;DHT22;39320;53.214;6.556;2022-12-07T12:54:04;6.40;99.90
51908;DHT22;39320;53.214;6.556;2022-12-07T12:56:47;6.40;99.90
51908;DHT22;39320;53.214;6.556;2022-12-07T12:59:23;6.40;99.90
51908;DHT22;39320;53.214;6.556;2022-12-07T13:01:52;6.30;99.90
51908;DHT22;39320;53.214;6.556;2022-12-07T13:04:38;6.30;99.90
51908;DHT22;39320;53.214;6.556;2022-12-07T13:07:06;6.20;99.90
51908;DHT22;39320;53.214;6.556;2022-12-07T13:09:35;6.20;99.90
51908;DHT22;39320;53.214;6.556;2022-12-07T13:12:13;6.10;99.90
51908;DHT22;39320;53.214;6.556;2022-12-07T13:14:52;6.10;99.90
51908;DHT22;39320;53.214;6.556;2022-12-07T13:19:57;6.00;99.90
51908;DHT22;39320;53.214;6.556;2022-12-07T13:27:29;6.10;99.90
51908;DHT22;39320;53.214;6.556;2022-12-07T13:29:57;6.00;99.90
51908;DHT22;39320;53.214;6.556;2022-12-07T13:32:27;6.00;99.90
51908;DHT22;39320;53.214;6.556;2022-12-07T13:34:53;6.50;99.90
51908;DHT22;39320;53.214;6.556;2022-12-07T13:37:28;6.00;99.90
51908;DHT22;39320;53.214;6.556;2022-12-07T13:39:59;6.00;99.90
51908;DHT22;39320;53.214;6.556;2022-12-07T13:42:29;5.90;99.90
51908;DHT22;39320;53.214;6.556;2022-12-07T13:44:57;5.90;99.90
51908;DHT22;39320;53.214;6.556;2022-12-07T13:47:36;5.90;99.90
51908;DHT22;39320;53.214;6.556;2022-12-07T13:50:24;5.80;99.90
51908;DHT22;39320;53.214;6.556;2022-12-07T13:52:50;5.10;99.90
51908;DHT22;39320;53.214;6.556;2022-12-07T13:55:16;5.70;99.90
51908;DHT22;39320;53.214;6.556;2022-12-07T13:57:47;5.60;99.90
51908;DHT22;39320;53.214;6.556;2022-12-07T14:00:34;5.60;99.90
51908;DHT22;39320;53.214;6.556;2022-12-07T14:03:04;5.80;99.90
51908;DHT22;39320;53.214;6.556;2022-12-07T14:05:46;5.60;99.90
51908;DHT22;39320;53.214;6.556;2022-12-07T14:08:30;5.60;99.90
51908;DHT22;39320;53.214;6.556;2022-12-07T14:10:57;5.60;99.90
51908;DHT22;39320;53.214;6.556;2022-12-07T14:15:51;5.50;99.90
51908;DHT22;39320;53.214;6.556;2022-12-07T14:18:37;5.50;99.90
51908;DHT22;39320;53.214;6.556;2022-12-07T14:21:18;5.60;99.90
51908;DHT22;39320;53.214;6.556;2022-12-07T14:23:44;5.60;99.90
51908;DHT22;39320;53.214;6.556;2022-12-07T14:26:14;5.50;99.90
51908;DHT22;39320;53.214;6.556;2022-12-07T14:28:41;5.50;99.90
51908;DHT22;39320;53.214;6.556;2022-12-07T14:31:17;5.40;99.90
51908;DHT22;39320;53.214;6.556;2022-12-07T14:33:43;5.60;99.90
51908;DHT22;39320;53.214;6.556;2022-12-07T14:36:10;5.40;99.90
51908;DHT22;39320;53.214;6.556;2022-12-07T14:38:37;5.30;99.90
51908;DHT22;39320;53.214;6.556;2022-12-07T14:41:04;5.30;99.90
51908;DHT22;39320;53.214;6.556;2022-12-07T14:43:50;6.00;99.90
51908;DHT22;39320;53.214;6.556;2022-12-07T14:46:15;5.30;99.90
51908;DHT22;39320;53.214;6.556;2022-12-07T14:48:41;5.30;99.90
51908;DHT22;39320;53.214;6.556;2022-12-07T14:51:10;5.30;99.90
51908;DHT22;39320;53.214;6.556;2022-12-07T14:53:40;6.30;99.90
51908;DHT22;39320;53.214;6.556;2022-12-07T14:56:07;5.90;99.90
51908;DHT22;39320;53.214;6.556;2022-12-07T14:58:33;5.30;99.90
51908;DHT22;39320;53.214;6.556;2022-12-07T15:01:00;5.40;99.90
51908;DHT22;39320;53.214;6.556;2022-12-07T15:03:26;5.30;99.90
51908;DHT22;39320;53.214;6.556;2022-12-07T15:05:52;5.40;99.90
51908;DHT22;39320;53.214;6.556;2022-12-07T15:08:17;5.40;99.90
51908;DHT22;39320;53.214;6.556;2022-12-07T15:10:44;5.40;99.90
51908;DHT22;39320;53.214;6.556;2022-12-07T15:13:09;5.40;99.90
51908;DHT22;39320;53.214;6.556;2022-12-07T15:15:54;5.40;99.90
51908;DHT22;39320;53.214;6.556;2022-12-07T15:18:22;5.50;99.90
51908;DHT22;39320;53.214;6.556;2022-12-07T15:20:49;5.50;99.90
51908;DHT22;39320;53.214;6.556;2022-12-07T15:23:15;5.40;99.90
51908;DHT22;39320;53.214;6.556;2022-12-07T15:25:45;5.40;99.90
51908;DHT22;39320;53.214;6.556;2022-12-07T15:28:11;5.40;99.90
51908;DHT22;39320;53.214;6.556;2022-12-07T15:30:38;5.30;99.90
51908;DHT22;39320;53.214;6.556;2022-12-07T15:33:04;5.30;99.90
51908;DHT22;39320;53.214;6.556;2022-12-07T15:35:30;6.30;99.90
51908;DHT22;39320;53.214;6.556;2022-12-07T15:37:55;5.10;99.90
51908;DHT22;39320;53.214;6.556;2022-12-07T15:40:21;5.00;99.90
51908;DHT22;39320;53.214;6.556;2022-12-07T15:42:47;5.00;99.90
51908;DHT22;39320;53.214;6.556;2022-12-07T15:45:13;5.00;99.90
51908;DHT22;39320;53.214;6.556;2022-12-07T15:47:43;5.30;99.90
51908;DHT22;39320;53.214;6.556;2022-12-07T15:50:15;5.00;99.90
51908;DHT22;39320;53.214;6.556;2022-12-07T15:52:41;5.00;99.90
51908;DHT22;39320;53.214;6.556;2022-12-07T15:55:08;5.00;99.90
51908;DHT22;39320;53.214;6.556;2022-12-07T15:57:36;4.90;99.90
51908;DHT22;39320;53.214;6.556;2022-12-07T16:00:04;4.70;99.90
51908;DHT22;39320;53.214;6.556;2022-12-07T16:02:30;4.80;99.90
51908;DHT22;39320;53.214;6.556;2022-12-07T16:04:56;4.80;99.90
51908;DHT22;39320;53.214;6.556;2022-12-07T16:07:22;4.70;99.90
51908;DHT22;39320;53.214;6.556;2022-12-07T16:09:47;4.70;99.90
51908;DHT22;39320;53.214;6.556;2022-12-07T16:12:15;5.40;99.90
51908;DHT22;39320;53.214;6.556;2022-12-07T16:14:41;5.10;99.90
51908;DHT22;39320;53.214;6.556;2022-12-07T16:17:08;4.40;99.90
51908;DHT22;39320;53.214;6.556;2022-12-07T16:19:35;4.90;99.90
51908;DHT22;39320;53.214;6.556;2022-12-07T16:22:02;5.00;99.90
51908;DHT22;39320;53.214;6.556;2022-12-07T16:24:28;5.00;99.90
51908;DHT22;39320;53.214;6.556;2022-12-07T16:26:54;5.00;99.90
51908;DHT22;39320;53.214;6.556;2022-12-07T16:29:21;5.00;99.90
51908;DHT22;39320;53.214;6.556;2022-12-07T16:31:47;5.00;99.90
51908;DHT22;39320;53.214;6.556;2022-12-07T16:34:13;5.00;99.90
51908;DHT22;39320;53.214;6.556;2022-12-07T16:36:39;4.90;99.90
51908;DHT22;39320;53.214;6.556;2022-12-07T16:39:05;4.90;99.90
51908;DHT22;39320;53.214;6.556;2022-12-07T16:41:31;4.90;99.90
51908;DHT22;39320;53.214;6.556;2022-12-07T16:43:57;4.80;99.90
51908;DHT22;39320;53.214;6.556;2022-12-07T16:46:27;4.80;99.90
51908;DHT22;39320;53.214;6.556;2022-12-07T16:48:54;4.80;99.90
51908;DHT22;39320;53.214;6.556;2022-12-07T16:51:20;4.80;99.90
51908;DHT22;39320;53.214;6.556;2022-12-07T16:53:46;4.80;99.90
51908;DHT22;39320;53.214;6.556;2022-12-07T16:56:15;5.50;99.90
51908;DHT22;39320;53.214;6.556;2022-12-07T16:58:45;4.60;99.90
51908;DHT22;39320;53.214;6.556;2022-12-07T17:01:19;4.60;99.90
51908;DHT22;39320;53.214;6.556;2022-12-07T17:03:47;5.10;99.90
51908;DHT22;39320;53.214;6.556;2022-12-07T17:08:39;4.50;99.90
51908;DHT22;39320;53.214;6.556;2022-12-07T17:11:17;5.40;99.90
51908;DHT22;39320;53.214;6.556;2022-12-07T17:13:43;4.50;99.90
51908;DHT22;39320;53.214;6.556;2022-12-07T17:16:28;4.50;99.90
51908;DHT22;39320;53.214;6.556;2022-12-07T17:18:54;4.40;99.90
51908;DHT22;39320;53.214;6.556;2022-12-07T17:21:20;4.40;99.90
51908;DHT22;39320;53.214;6.556;2022-12-07T17:23:46;4.90;99.90
51908;DHT22;39320;53.214;6.556;2022-12-07T17:26:16;4.40;99.90
51908;DHT22;39320;53.214;6.556;2022-12-07T17:28:42;4.40;99.90
51908;DHT22;39320;53.214;6.556;2022-12-07T17:31:10;4.40;99.90
51908;DHT22;39320;53.214;6.556;2022-12-07T17:33:36;4.50;99.90
51908;DHT22;39320;53.214;6.556;2022-12-07T17:36:13;4.00;99.90
51908;DHT22;39320;53.214;6.556;2022-12-07T17:38:40;4.50;99.90
51908;DHT22;39320;53.214;6.556;2022-12-07T17:41:17;4.60;99.90
51908;DHT22;39320;53.214;6.556;2022-12-07T17:44:05;4.60;99.90
51908;DHT22;39320;53.214;6.556;2022-12-07T17:46:31;4.60;99.90
51908;DHT22;39320;53.214;6.556;2022-12-07T17:48:58;4.70;99.90
51908;DHT22;39320;53.214;6.556;2022-12-07T17:51:24;4.70;99.90